createdAt,value
2018-02-05T00:00:57.887Z,71.82
2018-02-05T00:03:25.518Z,71.52
2018-02-05T00:05:54.716Z,71.63
2018-02-05T00:08:26.105Z,71.51
2018-02-05T00:10:58.584Z,71.46
2018-02-05T00:13:28.403Z,71.59
2018-02-05T00:15:55.925Z,71.58
2018-02-05T00:18:23.710Z,71.61
2018-02-05T00:23:35.284Z,71.24
2018-02-05T00:26:02.814Z,71.49
2018-02-05T00:28:30.335Z,71.39
2018-02-05T00:30:57.850Z,71.51
2018-02-05T00:33:25.407Z,71.69
2018-02-05T00:35:52.956Z,71.18
2018-02-05T00:38:20.536Z,71.72
2018-02-05T00:40:48.395Z,71.23
2018-02-05T00:43:15.994Z,71.25
2018-02-05T00:45:43.536Z,71.54
2018-02-05T00:48:11.055Z,71.53
2018-02-05T00:50:38.939Z,71.49
2018-02-05T00:53:06.828Z,71.42
2018-02-05T00:55:34.472Z,71.47
2018-02-05T00:58:02.552Z,71.17
2018-02-05T01:00:30.132Z,71.45
2018-02-05T01:02:58.454Z,71.28
2018-02-05T01:05:26.021Z,71.21
2018-02-05T01:07:53.546Z,71.02
2018-02-05T01:10:21.077Z,71.07
2018-02-05T01:12:48.982Z,71.25
2018-02-05T01:15:16.782Z,70.96
2018-02-05T01:17:44.380Z,70.96
2018-02-05T01:20:12.849Z,71.03
2018-02-05T01:22:41.152Z,71.00
2018-02-05T01:25:09.593Z,70.84
2018-02-05T01:27:37.130Z,70.98
2018-02-05T01:30:06.224Z,70.93
2018-02-05T01:32:33.763Z,70.80
2018-02-05T01:35:01.302Z,70.89
2018-02-05T01:37:28.879Z,71.07
2018-02-05T01:39:56.424Z,70.75
2018-02-05T01:42:24.230Z,70.93
2018-02-05T01:44:51.764Z,70.89
2018-02-05T01:47:19.299Z,70.84
2018-02-05T01:49:46.837Z,70.80
2018-02-05T01:52:14.385Z,70.77
2018-02-05T01:54:42.248Z,70.83
2018-02-05T01:57:09.794Z,70.67
2018-02-05T01:59:37.340Z,70.75
2018-02-05T02:02:04.878Z,70.87
2018-02-05T02:04:32.951Z,70.63
2018-02-05T02:07:00.538Z,70.78
2018-02-05T02:09:28.099Z,71.04
2018-02-05T02:11:55.609Z,71.01
2018-02-05T02:14:23.142Z,70.84
2018-02-05T02:16:50.688Z,70.71
2018-02-05T02:19:18.302Z,70.69
2018-02-05T02:21:45.818Z,70.68
2018-02-05T02:24:13.337Z,70.77
2018-02-05T02:26:40.891Z,70.60
2018-02-05T02:29:08.460Z,70.63
2018-02-05T02:31:35.993Z,70.67
2018-02-05T02:34:03.536Z,70.66
2018-02-05T02:36:31.976Z,70.34
2018-02-05T02:38:59.506Z,70.49
2018-02-05T02:41:27.058Z,70.41
2018-02-05T02:43:54.588Z,70.65
2018-02-05T02:46:22.125Z,70.18
2018-02-05T02:48:49.699Z,70.45
2018-02-05T02:51:17.258Z,70.40
2018-02-05T02:53:44.827Z,70.28
2018-02-05T02:56:13.383Z,70.35
2018-02-05T02:58:40.925Z,70.45
2018-02-05T03:01:08.531Z,70.42
2018-02-05T03:03:36.121Z,70.34
2018-02-05T03:06:03.645Z,70.42
2018-02-05T03:08:31.185Z,70.42
2018-02-05T03:10:58.729Z,70.19
2018-02-05T03:13:26.296Z,70.29
2018-02-05T03:15:53.825Z,70.38
2018-02-05T03:18:21.351Z,70.33
2018-02-05T03:20:48.874Z,70.33
2018-02-05T03:23:16.437Z,70.40
2018-02-05T03:25:44.011Z,69.89
2018-02-05T03:28:11.533Z,70.24
2018-02-05T03:30:39.118Z,70.25
2018-02-05T03:33:06.667Z,70.17
2018-02-05T03:35:34.191Z,70.20
2018-02-05T03:38:01.709Z,70.21
2018-02-05T03:40:29.262Z,70.32
2018-02-05T03:42:56.855Z,70.39
2018-02-05T03:45:24.421Z,70.29
2018-02-05T03:47:51.947Z,70.25
2018-02-05T03:50:19.869Z,70.18
2018-02-05T03:52:47.426Z,70.18
2018-02-05T03:55:15.056Z,70.04
2018-02-05T03:57:42.891Z,70.16
2018-02-05T04:00:10.624Z,70.22
2018-02-05T04:02:38.170Z,70.20
2018-02-05T04:05:05.704Z,70.13
2018-02-05T04:07:33.255Z,70.18
2018-02-05T04:10:00.789Z,70.25
2018-02-05T04:12:28.458Z,70.22
2018-02-05T04:14:55.969Z,70.23
2018-02-05T04:17:23.496Z,70.20
2018-02-05T04:19:51.013Z,70.25
2018-02-05T04:22:18.548Z,70.10
2018-02-05T04:24:46.342Z,70.06
2018-02-05T04:27:13.872Z,70.16
2018-02-05T04:29:41.396Z,70.16
2018-02-05T04:32:09.171Z,70.17
2018-02-05T04:34:36.737Z,69.99
2018-02-05T04:37:04.336Z,69.89
2018-02-05T04:39:31.856Z,69.91
2018-02-05T04:41:59.406Z,69.99
2018-02-05T04:44:26.946Z,70.12
2018-02-05T04:46:54.483Z,69.95
2018-02-05T04:49:22.059Z,69.73
2018-02-05T04:51:49.577Z,70.15
2018-02-05T04:54:17.150Z,70.01
2018-02-05T04:56:44.924Z,69.81
2018-02-05T04:59:12.821Z,70.20
2018-02-05T05:01:40.469Z,69.91
2018-02-05T05:04:08.243Z,70.11
2018-02-05T05:06:35.786Z,69.96
2018-02-05T05:09:03.557Z,70.00
2018-02-05T05:11:31.319Z,70.10
2018-02-05T05:13:58.917Z,69.98
2018-02-05T05:16:27.310Z,69.94
2018-02-05T05:18:54.896Z,69.79
2018-02-05T05:21:23.280Z,69.85
2018-02-05T05:23:51.050Z,69.98
2018-02-05T05:26:18.685Z,69.84
2018-02-05T05:28:46.560Z,69.56
2018-02-05T05:31:14.166Z,69.67
2018-02-05T05:33:41.914Z,69.47
2018-02-05T05:36:09.663Z,69.52
2018-02-05T05:38:37.327Z,69.29
2018-02-05T05:41:05.258Z,85.26
2018-02-05T05:43:32.958Z,87.34
2018-02-05T05:46:00.532Z,81.22
2018-02-05T05:48:28.298Z,78.55
2018-02-05T05:50:56.076Z,70.19
2018-02-05T05:53:23.679Z,73.00
2018-02-05T05:55:51.277Z,69.56
2018-02-05T05:58:18.875Z,62.48
2018-02-05T06:00:46.466Z,53.03
2018-02-05T06:03:14.021Z,50.53
2018-02-05T06:05:41.553Z,48.57
2018-02-05T06:08:09.095Z,47.24
2018-02-05T06:10:36.635Z,45.38
2018-02-05T06:13:04.563Z,44.27
2018-02-05T06:15:32.124Z,42.55
2018-02-05T06:17:59.732Z,41.15
2018-02-05T06:20:27.315Z,40.25
2018-02-05T06:22:54.908Z,38.19
2018-02-05T06:25:22.452Z,37.06
2018-02-05T06:27:50.195Z,35.34
2018-02-05T06:30:17.762Z,34.01
2018-02-05T06:32:45.368Z,32.50
2018-02-05T06:35:13.011Z,31.27
2018-02-05T06:37:40.552Z,29.91
2018-02-05T06:40:08.106Z,28.74
2018-02-05T06:42:35.674Z,27.72
2018-02-05T06:45:04.474Z,26.96
2018-02-05T06:47:32.076Z,25.65
2018-02-05T06:49:59.613Z,24.68
2018-02-05T06:52:39.008Z,24.17
2018-02-05T06:55:18.249Z,22.85
2018-02-05T06:57:46.644Z,22.12
2018-02-05T07:00:14.505Z,21.24
2018-02-05T07:02:42.021Z,20.33
2018-02-05T07:05:09.680Z,19.74
2018-02-05T07:07:37.274Z,18.93
2018-02-05T07:10:04.811Z,18.10
2018-02-05T07:12:32.397Z,17.39
2018-02-05T07:15:01.377Z,16.45
2018-02-05T07:17:28.995Z,16.65
2018-02-05T07:19:56.558Z,15.92
2018-02-05T07:22:24.102Z,15.44
2018-02-05T07:24:51.662Z,15.00
2018-02-05T07:27:19.221Z,14.33
2018-02-05T07:29:50.892Z,13.90
2018-02-05T07:32:18.484Z,13.55
2018-02-05T07:34:46.072Z,13.02
2018-02-05T07:37:13.644Z,12.61
2018-02-05T07:39:41.190Z,12.27
2018-02-05T07:42:09.137Z,12.12
2018-02-05T07:44:36.696Z,12.04
2018-02-05T07:47:04.399Z,11.71
2018-02-05T07:49:31.983Z,11.30
2018-02-05T07:51:59.729Z,11.22
2018-02-05T07:54:27.564Z,10.95
2018-02-05T07:56:56.442Z,10.57
2018-02-05T07:59:24.124Z,10.42
2018-02-05T08:01:51.922Z,10.03
2018-02-05T08:04:19.449Z,10.17
2018-02-05T08:06:47.041Z,9.86
2018-02-05T08:09:14.942Z,9.64
2018-02-05T08:11:42.522Z,9.26
2018-02-05T08:14:10.602Z,9.06
2018-02-05T08:16:38.262Z,9.10
2018-02-05T08:19:05.960Z,8.93
2018-02-05T08:21:33.692Z,8.98
2018-02-05T08:24:01.292Z,8.58
2018-02-05T08:26:29.232Z,8.59
2018-02-05T08:28:56.833Z,8.44
2018-02-05T08:31:24.585Z,8.21
2018-02-05T08:33:52.161Z,8.31
2018-02-05T08:36:19.753Z,8.15
2018-02-05T08:38:47.400Z,7.87
2018-02-05T08:41:15.173Z,7.63
2018-02-05T08:43:42.925Z,7.55
2018-02-05T08:46:11.160Z,7.42
2018-02-05T08:48:39.411Z,7.34
2018-02-05T08:51:09.095Z,7.25
2018-02-05T08:53:37.227Z,6.94
2018-02-05T08:56:06.838Z,6.71
2018-02-05T08:58:34.442Z,6.46
2018-02-05T09:01:02.060Z,6.37
2018-02-05T09:03:29.682Z,6.36
2018-02-05T09:05:57.286Z,6.54
2018-02-05T09:08:24.901Z,6.23
2018-02-05T09:10:52.976Z,6.07
2018-02-05T09:13:21.232Z,6.22
2018-02-05T09:15:48.859Z,6.08
2018-02-05T09:18:16.502Z,5.73
2018-02-05T09:20:44.059Z,5.85
2018-02-05T09:23:11.652Z,5.76
2018-02-05T09:25:39.184Z,5.92
2018-02-05T09:28:07.932Z,5.76
2018-02-05T09:30:35.541Z,5.63
2018-02-05T09:33:03.561Z,5.39
2018-02-05T09:35:31.489Z,5.24
2018-02-05T09:38:00.166Z,5.11
2018-02-05T09:40:27.774Z,5.23
2018-02-05T09:42:57.162Z,5.09
2018-02-05T09:45:24.818Z,4.86
2018-02-05T09:47:52.445Z,4.78
2018-02-05T09:50:20.038Z,4.60
2018-02-05T09:52:47.638Z,4.64
2018-02-05T09:55:16.009Z,4.42
2018-02-05T09:57:43.610Z,4.37
2018-02-05T10:00:11.554Z,4.31
2018-02-05T10:02:39.851Z,4.39
2018-02-05T10:05:07.974Z,4.28
2018-02-05T10:07:36.071Z,4.33
2018-02-05T10:10:04.995Z,4.10
2018-02-05T10:12:33.356Z,3.92
2018-02-05T10:15:00.948Z,4.11
2018-02-05T10:20:11.528Z,3.87
2018-02-05T10:22:40.169Z,3.69
2018-02-05T10:25:08.193Z,3.70
2018-02-05T10:27:36.613Z,3.56
2018-02-05T10:30:08.210Z,3.53
2018-02-05T10:32:36.400Z,3.45
2018-02-05T10:35:05.295Z,3.40
2018-02-05T10:37:33.742Z,3.31
2018-02-05T10:40:08.150Z,3.33
2018-02-05T10:42:36.521Z,3.33
2018-02-05T10:45:05.279Z,3.50
2018-02-05T10:47:32.962Z,3.69
2018-02-05T10:50:00.800Z,3.72
2018-02-05T10:52:31.804Z,4.08
2018-02-05T10:55:21.414Z,4.29
2018-02-05T10:57:51.150Z,4.44
2018-02-05T11:00:18.802Z,4.78
2018-02-05T11:02:47.071Z,4.89
2018-02-05T11:05:14.822Z,5.02
2018-02-05T11:07:42.480Z,5.09
2018-02-05T11:10:10.444Z,5.21
2018-02-05T11:12:59.276Z,5.85
2018-02-05T11:15:27.747Z,5.88
2018-02-05T11:17:55.430Z,6.10
2018-02-05T11:20:22.959Z,6.28
2018-02-05T11:22:50.702Z,6.45
2018-02-05T11:25:19.333Z,6.69
2018-02-05T11:27:46.889Z,7.06
2018-02-05T11:30:14.546Z,7.46
2018-02-05T11:32:42.076Z,7.35
2018-02-05T11:35:09.603Z,7.15
2018-02-05T11:37:37.178Z,7.31
2018-02-05T11:40:04.918Z,7.69
2018-02-05T11:42:33.390Z,8.13
2018-02-05T11:45:01.610Z,8.49
2018-02-05T11:47:29.122Z,8.45
2018-02-05T11:49:56.638Z,8.81
2018-02-05T11:52:24.691Z,9.37
2018-02-05T11:54:52.205Z,9.73
2018-02-05T11:57:19.718Z,10.12
2018-02-05T11:59:47.304Z,10.79
2018-02-05T12:02:14.857Z,10.94
2018-02-05T12:04:42.850Z,11.72
2018-02-05T12:07:10.385Z,12.21
2018-02-05T12:09:38.420Z,12.96
2018-02-05T12:12:05.948Z,13.18
2018-02-05T12:14:33.491Z,13.32
2018-02-05T12:17:01.098Z,13.66
2018-02-05T12:19:28.785Z,13.75
2018-02-05T12:21:56.536Z,13.89
2018-02-05T12:24:24.134Z,14.72
2018-02-05T12:26:51.742Z,14.97
2018-02-05T12:29:19.263Z,15.32
2018-02-05T12:31:46.844Z,15.64
2018-02-05T12:34:14.372Z,15.82
2018-02-05T12:36:42.268Z,15.83
2018-02-05T12:39:09.822Z,15.99
2018-02-05T12:41:37.386Z,16.09
2018-02-05T12:44:05.288Z,16.48
2018-02-05T12:46:32.843Z,16.52
2018-02-05T12:49:00.389Z,16.85
2018-02-05T12:51:27.896Z,16.86
2018-02-05T12:53:55.495Z,17.08
2018-02-05T12:56:23.132Z,17.35
2018-02-05T12:58:50.762Z,16.75
2018-02-05T13:04:35.242Z,17.59
2018-02-05T13:07:02.845Z,18.19
2018-02-05T13:09:30.349Z,18.17
2018-02-05T13:11:57.909Z,18.20
2018-02-05T13:14:25.487Z,18.37
2018-02-05T13:16:53.334Z,18.84
2018-02-05T13:19:20.949Z,18.73
2018-02-05T13:21:48.741Z,18.76
2018-02-05T13:24:16.262Z,19.01
2018-02-05T13:26:43.812Z,19.27
2018-02-05T13:29:11.455Z,18.97
2018-02-05T13:31:39.025Z,19.23
2018-02-05T13:34:08.062Z,19.21
2018-02-05T13:36:35.582Z,19.07
2018-02-05T13:39:03.226Z,19.38
2018-02-05T13:41:30.761Z,19.48
2018-02-05T13:43:58.321Z,19.56
2018-02-05T13:46:25.893Z,19.54
2018-02-05T13:48:53.417Z,19.67
2018-02-05T13:51:20.995Z,19.96
2018-02-05T13:53:48.582Z,19.95
2018-02-05T13:56:16.117Z,20.43
2018-02-05T13:58:43.642Z,20.68
2018-02-05T14:01:11.347Z,20.45
2018-02-05T14:03:38.915Z,21.18
2018-02-05T14:06:06.529Z,21.30
2018-02-05T14:08:34.096Z,21.52
2018-02-05T14:11:01.626Z,22.28
2018-02-05T14:13:29.178Z,22.03
2018-02-05T14:15:56.857Z,22.20
2018-02-05T14:18:24.714Z,22.51
2018-02-05T14:20:52.247Z,23.17
2018-02-05T14:23:19.818Z,23.05
2018-02-05T14:25:47.335Z,23.76
2018-02-05T14:28:14.899Z,23.78
2018-02-05T14:30:42.494Z,23.39
2018-02-05T14:33:10.061Z,23.65
2018-02-05T14:35:37.611Z,23.58
2018-02-05T14:38:05.165Z,24.62
2018-02-05T14:40:32.805Z,24.36
2018-02-05T14:43:00.358Z,24.85
2018-02-05T14:45:27.933Z,24.86
2018-02-05T14:47:55.499Z,25.24
2018-02-05T14:50:23.400Z,25.89
2018-02-05T14:52:50.958Z,26.23
2018-02-05T14:55:18.531Z,26.61
2018-02-05T14:57:46.110Z,27.09
2018-02-05T15:00:13.758Z,25.94
2018-02-05T15:02:41.272Z,26.18
2018-02-05T15:05:09.099Z,27.67
2018-02-05T15:07:36.723Z,28.08
2018-02-05T15:10:04.257Z,26.83
2018-02-05T15:12:31.804Z,27.26
2018-02-05T15:14:59.419Z,27.46
2018-02-05T15:17:26.935Z,27.59
2018-02-05T15:19:54.449Z,28.49
2018-02-05T15:22:22.078Z,28.68
2018-02-05T15:24:49.740Z,28.81
2018-02-05T15:27:17.269Z,29.09
2018-02-05T15:29:44.813Z,28.74
2018-02-05T15:32:13.244Z,30.39
2018-02-05T15:34:40.851Z,30.64
2018-02-05T15:37:08.798Z,30.01
2018-02-05T15:39:37.186Z,31.11
2018-02-05T15:42:05.121Z,30.45
2018-02-05T15:44:32.811Z,30.96
2018-02-05T15:47:00.432Z,31.01
2018-02-05T15:49:28.013Z,30.35
2018-02-05T15:51:55.752Z,32.14
2018-02-05T15:54:23.334Z,30.80
2018-02-05T15:56:50.891Z,32.10
2018-02-05T15:59:18.700Z,31.52
2018-02-05T16:01:46.349Z,30.74
2018-02-05T16:04:13.905Z,31.50
2018-02-05T16:06:41.442Z,31.88
2018-02-05T16:09:09.246Z,31.90
2018-02-05T16:11:37.026Z,31.57
2018-02-05T16:14:04.632Z,32.30
2018-02-05T16:16:32.986Z,32.03
2018-02-05T16:19:00.632Z,58.77
2018-02-05T16:21:28.193Z,53.58
2018-02-05T16:23:55.779Z,47.41
2018-02-05T16:26:23.318Z,47.58
2018-02-05T16:28:51.436Z,52.87
2018-02-05T16:31:19.056Z,49.60
2018-02-05T16:33:46.693Z,49.71
2018-02-05T16:36:14.280Z,49.28
2018-02-05T16:38:41.991Z,49.72
2018-02-05T16:41:09.595Z,49.17
2018-02-05T16:43:37.374Z,49.24
2018-02-05T16:46:05.062Z,49.35
2018-02-05T16:48:32.689Z,49.90
2018-02-05T16:51:00.415Z,49.40
2018-02-05T16:53:28.058Z,50.27
2018-02-05T16:55:56.270Z,50.63
2018-02-05T16:58:23.838Z,50.20
2018-02-05T17:00:51.413Z,50.65
2018-02-05T17:03:18.938Z,50.86
2018-02-05T17:05:47.303Z,51.10
2018-02-05T17:08:14.968Z,51.69
2018-02-05T17:10:42.523Z,52.07
2018-02-05T17:13:10.111Z,52.01
2018-02-05T17:15:37.687Z,52.45
2018-02-05T17:18:05.241Z,70.91
2018-02-05T17:20:32.901Z,73.33
2018-02-05T17:23:00.480Z,67.71
2018-02-05T17:25:28.097Z,66.20
2018-02-05T17:27:55.702Z,64.75
2018-02-05T17:30:23.353Z,64.29
2018-02-05T17:32:50.950Z,64.39
2018-02-05T17:35:18.512Z,63.85
2018-02-05T17:37:46.158Z,64.31
2018-02-05T17:40:13.727Z,63.98
2018-02-05T17:42:41.280Z,64.07
2018-02-05T17:45:08.963Z,64.17
2018-02-05T17:47:36.513Z,63.91
2018-02-05T17:50:04.073Z,63.78
2018-02-05T17:52:31.650Z,63.76
2018-02-05T17:55:00.498Z,63.21
2018-02-05T17:57:29.141Z,63.88
2018-02-05T17:59:56.751Z,63.66
2018-02-05T18:02:24.433Z,64.12
2018-02-05T18:04:52.176Z,64.36
2018-02-05T18:07:19.709Z,63.99
2018-02-05T18:09:47.329Z,63.98
2018-02-05T18:12:14.970Z,63.89
2018-02-05T18:14:42.928Z,64.07
2018-02-05T18:17:10.505Z,64.34
2018-02-05T18:19:38.364Z,64.39
2018-02-05T18:22:05.960Z,64.20
2018-02-05T18:24:33.671Z,64.04
2018-02-05T18:27:02.044Z,64.11
2018-02-05T18:29:29.592Z,64.21
2018-02-05T18:31:57.279Z,64.40
2018-02-05T18:34:24.816Z,63.98
2018-02-05T18:36:52.649Z,64.33
2018-02-05T18:39:22.459Z,64.43
2018-02-05T18:41:50.510Z,64.19
2018-02-05T18:44:18.895Z,64.49
2018-02-05T18:46:46.473Z,64.45
2018-02-05T18:49:14.054Z,64.65
2018-02-05T18:51:41.602Z,64.49
2018-02-05T18:54:09.539Z,64.68
2018-02-05T18:56:44.906Z,64.45
2018-02-05T18:59:12.513Z,64.46
2018-02-05T19:01:40.426Z,65.04
2018-02-05T19:04:07.997Z,64.86
2018-02-05T19:06:36.462Z,64.72
2018-02-05T19:09:04.067Z,64.75
2018-02-05T19:11:31.631Z,64.92
2018-02-05T19:13:59.437Z,64.67
2018-02-05T19:16:27.058Z,64.87
2018-02-05T19:18:54.849Z,65.16
2018-02-05T19:21:22.854Z,65.29
2018-02-05T19:23:50.982Z,65.23
2018-02-05T19:26:18.593Z,65.17
2018-02-05T19:28:46.400Z,65.32
2018-02-05T19:31:14.427Z,65.49
2018-02-05T19:33:41.975Z,65.42
2018-02-05T19:36:10.221Z,65.33
2018-02-05T19:38:38.884Z,65.53
2018-02-05T19:41:06.703Z,65.81
2018-02-05T19:43:34.295Z,65.58
2018-02-05T19:46:01.953Z,65.57
2018-02-05T19:48:30.184Z,65.20
2018-02-05T19:50:57.771Z,65.50
2018-02-05T19:53:25.530Z,65.68
2018-02-05T19:55:53.338Z,65.48
2018-02-05T19:58:21.122Z,65.64
2018-02-05T20:00:48.732Z,65.73
2018-02-05T20:03:16.302Z,65.58
2018-02-05T20:05:43.848Z,65.75
2018-02-05T20:08:11.481Z,65.60
2018-02-05T20:10:39.427Z,65.46
2018-02-05T20:13:07.324Z,65.83
2018-02-05T20:15:34.942Z,68.48
2018-02-05T20:18:02.558Z,70.66
2018-02-05T20:20:30.103Z,69.31
2018-02-05T20:22:57.777Z,68.46
2018-02-05T20:25:25.383Z,67.91
2018-02-05T20:27:53.156Z,67.96
2018-02-05T20:30:20.954Z,67.75
2018-02-05T20:32:48.815Z,67.87
2018-02-05T20:35:17.329Z,67.77
2018-02-05T20:37:45.138Z,67.71
2018-02-05T20:40:14.676Z,67.76
2018-02-05T20:42:42.215Z,67.72
2018-02-05T20:45:09.817Z,67.83
2018-02-05T20:47:41.304Z,67.58
2018-02-05T20:50:15.443Z,67.51
2018-02-05T20:52:42.994Z,67.80
2018-02-05T20:55:10.556Z,67.81
2018-02-05T20:57:39.197Z,67.67
2018-02-05T21:00:07.842Z,67.76
2018-02-05T21:02:36.104Z,67.75
2018-02-05T21:05:03.665Z,67.59
2018-02-05T21:07:31.708Z,67.72
2018-02-05T21:09:59.275Z,67.66
2018-02-05T21:12:27.174Z,67.86
2018-02-05T21:14:54.880Z,68.12
2018-02-05T21:17:28.469Z,68.04
2018-02-05T21:19:56.267Z,67.99
2018-02-05T21:23:00.239Z,68.08
2018-02-05T21:25:32.648Z,67.87
2018-02-05T21:28:01.203Z,68.08
2018-02-05T21:30:28.892Z,68.07
2018-02-05T21:32:56.461Z,68.14
2018-02-05T21:35:25.836Z,67.92
2018-02-05T21:37:53.485Z,68.21
2018-02-05T21:40:22.967Z,68.44
2018-02-05T21:42:50.744Z,68.34
2018-02-05T21:45:18.418Z,68.03
2018-02-05T21:47:46.013Z,68.13
2018-02-05T21:50:13.555Z,68.00
2018-02-05T21:52:41.220Z,68.16
2018-02-05T21:55:08.988Z,68.18
2018-02-05T22:11:43.618Z,68.03
2018-02-05T22:14:11.230Z,68.11
2018-02-05T22:16:39.065Z,68.23
2018-02-05T22:19:06.883Z,67.85
2018-02-05T22:21:34.394Z,68.20
2018-02-05T22:24:01.914Z,68.04
2018-02-05T22:26:29.602Z,68.24
2018-02-05T22:28:57.144Z,68.24
2018-02-05T22:34:35.083Z,68.46
2018-02-05T22:37:02.777Z,68.47
2018-02-05T22:53:26.132Z,68.42
2018-02-05T22:55:53.713Z,68.17
2018-02-05T22:58:21.589Z,68.23
2018-02-05T23:00:49.242Z,68.25
2018-02-05T23:03:16.786Z,68.69
2018-02-05T23:05:44.320Z,68.74
2018-02-05T23:08:11.976Z,68.65
2018-02-05T23:10:39.509Z,68.67
2018-02-05T23:13:07.059Z,68.66
2018-02-05T23:15:35.430Z,69.02
2018-02-05T23:18:04.075Z,68.68
2018-02-05T23:20:33.048Z,68.85
2018-02-05T23:23:00.792Z,68.98
2018-02-05T23:25:28.962Z,68.81
2018-02-05T23:27:56.765Z,68.89
2018-02-05T23:30:24.797Z,68.81
2018-02-05T23:32:52.376Z,68.44
2018-02-05T23:35:20.007Z,68.70
2018-02-05T23:37:56.115Z,68.71
2018-02-05T23:40:24.406Z,68.48
2018-02-05T23:42:51.933Z,68.94
2018-02-05T23:45:20.624Z,68.68
2018-02-05T23:47:48.147Z,68.73
2018-02-05T23:50:17.760Z,69.04
2018-02-05T23:52:47.703Z,68.70
2018-02-05T23:55:15.465Z,68.92
2018-02-05T23:57:43.016Z,69.05
